sensor_id;sensor_type;location;lat;lon;timestamp;pressure;altitude;pressure_sealevel;temperature;humidity
63115;BME280;49208;50.874;6.466;2024-03-02T07:02:30;98976.19;;;7.22;97.62
63115;BME280;49208;50.874;6.466;2024-03-02T07:04:55;98987.34;;;7.29;97.32
63115;BME280;49208;50.874;6.466;2024-03-02T07:07:21;98984.63;;;7.31;97.72
63115;BME280;49208;50.874;6.466;2024-03-02T07:09:47;98984.69;;;7.29;97.80
63115;BME280;49208;50.874;6.466;2024-03-02T07:12:13;98989.06;;;7.30;97.32
63115;BME280;49208;50.874;6.466;2024-03-02T07:14:38;98984.63;;;7.31;97.34
63115;BME280;49208;50.874;6.466;2024-03-02T07:17:22;98985.44;;;7.33;96.74
63115;BME280;49208;50.874;6.466;2024-03-02T07:19:47;98967.53;;;7.38;96.33
63115;BME280;49208;50.874;6.466;2024-03-02T07:22:12;98979.06;;;7.37;96.65
63115;BME280;49208;50.874;6.466;2024-03-02T07:24:41;98990.22;;;7.43;95.99
63115;BME280;49208;50.874;6.466;2024-03-02T07:27:08;98998.16;;;7.43;95.79
63115;BME280;49208;50.874;6.466;2024-03-02T07:29:34;99002.78;;;7.38;96.34
63115;BME280;49208;50.874;6.466;2024-03-02T07:31:59;99006.50;;;7.34;97.35
63115;BME280;49208;50.874;6.466;2024-03-02T07:34:25;99003.97;;;7.33;97.36
63115;BME280;49208;50.874;6.466;2024-03-02T07:36:51;99008.09;;;7.38;96.29
63115;BME280;49208;50.874;6.466;2024-03-02T07:39:16;99009.16;;;7.34;96.49
63115;BME280;49208;50.874;6.466;2024-03-02T07:41:42;99014.19;;;7.40;95.78
63115;BME280;49208;50.874;6.466;2024-03-02T07:44:07;99015.91;;;7.41;96.39
63115;BME280;49208;50.874;6.466;2024-03-02T07:46:32;99021.25;;;7.40;96.80
63115;BME280;49208;50.874;6.466;2024-03-02T07:48:58;99017.59;;;7.42;96.27
63115;BME280;49208;50.874;6.466;2024-03-02T07:51:24;99016.53;;;7.46;95.10
63115;BME280;49208;50.874;6.466;2024-03-02T07:53:49;99027.13;;;7.46;95.34
63115;BME280;49208;50.874;6.466;2024-03-02T07:56:14;99027.84;;;7.50;95.41
63115;BME280;49208;50.874;6.466;2024-03-02T07:58:46;99033.00;;;7.53;94.27
63115;BME280;49208;50.874;6.466;2024-03-02T08:01:13;99034.56;;;7.57;94.64
63115;BME280;49208;50.874;6.466;2024-03-02T08:03:38;99014.13;;;7.61;94.24
63115;BME280;49208;50.874;6.466;2024-03-02T08:06:04;99024.78;;;7.59;94.61
63115;BME280;49208;50.874;6.466;2024-03-02T08:08:29;99026.66;;;7.76;92.57
63115;BME280;49208;50.874;6.466;2024-03-02T08:10:55;99028.13;;;8.37;90.69
63115;BME280;49208;50.874;6.466;2024-03-02T08:13:20;99038.88;;;8.53;87.12
63115;BME280;49208;50.874;6.466;2024-03-02T08:15:45;99035.25;;;8.37;88.35
63115;BME280;49208;50.874;6.466;2024-03-02T08:18:12;99040.19;;;8.25;88.82
63115;BME280;49208;50.874;6.466;2024-03-02T08:20:37;99031.06;;;8.14;89.47
63115;BME280;49208;50.874;6.466;2024-03-02T08:23:03;99022.47;;;8.08;90.48
63115;BME280;49208;50.874;6.466;2024-03-02T08:25:28;99031.38;;;8.07;90.31
63115;BME280;49208;50.874;6.466;2024-03-02T08:27:54;99027.63;;;8.12;89.79
63115;BME280;49208;50.874;6.466;2024-03-02T08:30:19;99022.47;;;8.08;91.27
63115;BME280;49208;50.874;6.466;2024-03-02T08:32:44;99030.06;;;8.16;90.48
63115;BME280;49208;50.874;6.466;2024-03-02T08:35:12;99030.53;;;8.24;89.66
63115;BME280;49208;50.874;6.466;2024-03-02T08:37:39;99031.16;;;8.29;89.90
63115;BME280;49208;50.874;6.466;2024-03-02T08:40:07;99030.00;;;8.35;88.55
63115;BME280;49208;50.874;6.466;2024-03-02T08:42:33;99026.28;;;8.39;89.36
63115;BME280;49208;50.874;6.466;2024-03-02T08:44:59;99032.88;;;8.49;87.11
63115;BME280;49208;50.874;6.466;2024-03-02T08:47:26;99041.22;;;8.59;88.27
63115;BME280;49208;50.874;6.466;2024-03-02T08:49:52;99045.03;;;8.71;88.07
63115;BME280;49208;50.874;6.466;2024-03-02T08:52:17;99032.19;;;8.81;84.50
63115;BME280;49208;50.874;6.466;2024-03-02T08:54:42;99038.19;;;8.84;83.77
63115;BME280;49208;50.874;6.466;2024-03-02T08:57:08;99023.72;;;8.90;82.40
63115;BME280;49208;50.874;6.466;2024-03-02T08:59:33;99033.56;;;8.88;82.37
63115;BME280;49208;50.874;6.466;2024-03-02T09:01:59;99023.66;;;8.92;82.26
63115;BME280;49208;50.874;6.466;2024-03-02T09:04:24;99033.34;;;8.93;83.60
63115;BME280;49208;50.874;6.466;2024-03-02T09:06:50;99028.91;;;8.93;84.27
63115;BME280;49208;50.874;6.466;2024-03-02T09:09:15;99045.53;;;8.97;83.77
63115;BME280;49208;50.874;6.466;2024-03-02T09:11:40;99042.69;;;9.00;83.00
63115;BME280;49208;50.874;6.466;2024-03-02T09:14:06;99035.50;;;9.02;80.05
63115;BME280;49208;50.874;6.466;2024-03-02T09:16:31;99032.88;;;9.02;77.82
63115;BME280;49208;50.874;6.466;2024-03-02T09:18:58;99032.63;;;9.06;76.72
63115;BME280;49208;50.874;6.466;2024-03-02T09:21:23;99032.78;;;9.03;77.02
63115;BME280;49208;50.874;6.466;2024-03-02T09:23:50;99036.16;;;9.07;76.11
63115;BME280;49208;50.874;6.466;2024-03-02T09:26:16;99032.47;;;9.09;75.09
63115;BME280;49208;50.874;6.466;2024-03-02T09:28:45;99042.44;;;9.22;73.09
63115;BME280;49208;50.874;6.466;2024-03-02T09:31:10;99040.31;;;9.28;73.34
63115;BME280;49208;50.874;6.466;2024-03-02T09:33:36;99032.22;;;9.47;74.15
63115;BME280;49208;50.874;6.466;2024-03-02T09:36:02;99039.28;;;9.64;75.34
63115;BME280;49208;50.874;6.466;2024-03-02T09:38:27;99042.41;;;9.88;72.95
63115;BME280;49208;50.874;6.466;2024-03-02T09:40:53;99036.22;;;10.04;73.34
63115;BME280;49208;50.874;6.466;2024-03-02T09:43:18;99034.75;;;10.14;71.04
63115;BME280;49208;50.874;6.466;2024-03-02T09:45:44;99037.38;;;10.31;72.94
63115;BME280;49208;50.874;6.466;2024-03-02T09:48:10;99044.81;;;10.41;72.01
63115;BME280;49208;50.874;6.466;2024-03-02T09:50:35;99035.00;;;10.41;72.24
63115;BME280;49208;50.874;6.466;2024-03-02T09:53:01;99035.13;;;10.40;73.22
63115;BME280;49208;50.874;6.466;2024-03-02T09:55:27;99032.13;;;10.30;71.70
63115;BME280;49208;50.874;6.466;2024-03-02T09:57:53;99035.25;;;10.21;69.94
63115;BME280;49208;50.874;6.466;2024-03-02T10:00:18;99039.31;;;10.12;71.35
63115;BME280;49208;50.874;6.466;2024-03-02T10:02:44;99032.44;;;10.08;69.16
63115;BME280;49208;50.874;6.466;2024-03-02T10:05:10;99033.06;;;9.97;72.29
63115;BME280;49208;50.874;6.466;2024-03-02T10:07:35;99038.81;;;10.05;70.79
63115;BME280;49208;50.874;6.466;2024-03-02T10:10:15;99030.97;;;10.18;73.55
63115;BME280;49208;50.874;6.466;2024-03-02T10:12:41;99038.88;;;10.51;73.65
63115;BME280;49208;50.874;6.466;2024-03-02T10:15:06;99038.03;;;10.81;71.84
63115;BME280;49208;50.874;6.466;2024-03-02T10:17:32;99029.88;;;10.99;70.18
63115;BME280;49208;50.874;6.466;2024-03-02T10:19:58;99031.44;;;11.17;69.05
63115;BME280;49208;50.874;6.466;2024-03-02T10:22:23;99030.41;;;11.34;67.66
63115;BME280;49208;50.874;6.466;2024-03-02T10:24:49;99030.88;;;11.55;65.68
63115;BME280;49208;50.874;6.466;2024-03-02T10:27:19;99026.13;;;11.75;65.76
63115;BME280;49208;50.874;6.466;2024-03-02T10:29:47;99018.19;;;11.87;63.61
63115;BME280;49208;50.874;6.466;2024-03-02T10:32:13;99011.59;;;12.07;68.96
63115;BME280;49208;50.874;6.466;2024-03-02T10:34:43;99004.00;;;12.28;64.60
63115;BME280;49208;50.874;6.466;2024-03-02T10:37:10;98998.41;;;12.46;65.23
63115;BME280;49208;50.874;6.466;2024-03-02T10:39:36;98998.03;;;12.65;60.89
63115;BME280;49208;50.874;6.466;2024-03-02T10:42:03;98996.44;;;12.75;61.92
63115;BME280;49208;50.874;6.466;2024-03-02T10:44:30;99001.38;;;12.94;59.20
63115;BME280;49208;50.874;6.466;2024-03-02T10:46:55;98998.72;;;13.07;62.02
63115;BME280;49208;50.874;6.466;2024-03-02T10:49:23;98999.59;;;13.20;60.12
63115;BME280;49208;50.874;6.466;2024-03-02T10:51:49;98999.16;;;13.13;60.51
63115;BME280;49208;50.874;6.466;2024-03-02T10:54:14;98998.09;;;13.16;60.46
63115;BME280;49208;50.874;6.466;2024-03-02T10:56:41;98999.38;;;13.23;60.04
63115;BME280;49208;50.874;6.466;2024-03-02T10:59:29;98997.91;;;13.32;57.16
63115;BME280;49208;50.874;6.466;2024-03-02T11:02:02;98990.84;;;13.44;57.44
63115;BME280;49208;50.874;6.466;2024-03-02T11:04:28;98991.81;;;13.43;56.51
63115;BME280;49208;50.874;6.466;2024-03-02T11:06:59;98992.88;;;13.40;54.87
63115;BME280;49208;50.874;6.466;2024-03-02T11:09:28;98988.84;;;13.34;56.49
63115;BME280;49208;50.874;6.466;2024-03-02T11:14:27;98989.34;;;13.40;58.06
63115;BME280;49208;50.874;6.466;2024-03-02T11:16:55;98997.16;;;13.56;55.89
63115;BME280;49208;50.874;6.466;2024-03-02T11:19:21;98990.50;;;13.61;56.51
63115;BME280;49208;50.874;6.466;2024-03-02T11:21:47;98988.38;;;13.53;54.72
63115;BME280;49208;50.874;6.466;2024-03-02T11:26:53;98993.16;;;13.61;54.86
63115;BME280;49208;50.874;6.466;2024-03-02T11:32:03;98998.44;;;13.37;55.38
63115;BME280;49208;50.874;6.466;2024-03-02T11:34:30;98996.84;;;13.47;54.61
63115;BME280;49208;50.874;6.466;2024-03-02T11:36:56;98997.75;;;13.59;57.33
63115;BME280;49208;50.874;6.466;2024-03-02T11:39:22;98983.75;;;13.68;56.48
63115;BME280;49208;50.874;6.466;2024-03-02T11:41:47;98975.94;;;13.65;56.82
63115;BME280;49208;50.874;6.466;2024-03-02T11:44:14;98982.06;;;13.54;56.00
63115;BME280;49208;50.874;6.466;2024-03-02T11:46:40;98980.06;;;13.32;54.16
63115;BME280;49208;50.874;6.466;2024-03-02T11:49:05;98974.16;;;13.14;53.86
63115;BME280;49208;50.874;6.466;2024-03-02T11:51:33;98974.50;;;12.97;56.24
63115;BME280;49208;50.874;6.466;2024-03-02T11:54:00;98973.75;;;12.95;55.07
63115;BME280;49208;50.874;6.466;2024-03-02T11:56:28;98971.25;;;12.92;56.36
63115;BME280;49208;50.874;6.466;2024-03-02T11:58:56;98961.56;;;12.91;55.98
63115;BME280;49208;50.874;6.466;2024-03-02T12:01:22;98943.16;;;12.86;57.66
63115;BME280;49208;50.874;6.466;2024-03-02T12:03:48;98932.38;;;12.88;57.58
63115;BME280;49208;50.874;6.466;2024-03-02T12:06:14;98924.16;;;12.91;56.57
63115;BME280;49208;50.874;6.466;2024-03-02T12:08:40;98928.34;;;12.95;54.75
63115;BME280;49208;50.874;6.466;2024-03-02T12:11:05;98921.59;;;12.89;56.17
63115;BME280;49208;50.874;6.466;2024-03-02T12:13:32;98917.31;;;12.87;55.36
63115;BME280;49208;50.874;6.466;2024-03-02T12:15:58;98914.66;;;12.87;57.91
63115;BME280;49208;50.874;6.466;2024-03-02T12:18:23;98915.59;;;12.86;56.59
63115;BME280;49208;50.874;6.466;2024-03-02T12:20:50;98921.59;;;12.89;56.07
63115;BME280;49208;50.874;6.466;2024-03-02T12:23:21;98918.59;;;12.94;57.33
63115;BME280;49208;50.874;6.466;2024-03-02T12:25:47;98927.78;;;12.90;59.24
63115;BME280;49208;50.874;6.466;2024-03-02T12:28:12;98929.50;;;13.04;56.24
63115;BME280;49208;50.874;6.466;2024-03-02T12:30:38;98928.75;;;13.02;57.79
63115;BME280;49208;50.874;6.466;2024-03-02T12:33:04;98920.84;;;13.00;59.18
63115;BME280;49208;50.874;6.466;2024-03-02T12:35:30;98925.84;;;12.92;60.35
63115;BME280;49208;50.874;6.466;2024-03-02T12:37:55;98924.25;;;12.89;58.45
63115;BME280;49208;50.874;6.466;2024-03-02T12:40:22;98914.84;;;12.84;59.42
63115;BME280;49208;50.874;6.466;2024-03-02T12:42:48;98903.53;;;12.80;61.26
63115;BME280;49208;50.874;6.466;2024-03-02T12:45:15;98914.84;;;12.84;60.62
63115;BME280;49208;50.874;6.466;2024-03-02T12:47:41;98912.41;;;12.81;62.44
63115;BME280;49208;50.874;6.466;2024-03-02T12:50:08;98908.56;;;12.85;61.53
63115;BME280;49208;50.874;6.466;2024-03-02T12:52:34;98911.66;;;12.91;61.29
63115;BME280;49208;50.874;6.466;2024-03-02T12:55:00;98914.22;;;12.93;61.30
63115;BME280;49208;50.874;6.466;2024-03-02T12:57:28;98915.94;;;12.94;62.22
63115;BME280;49208;50.874;6.466;2024-03-02T13:00:04;98913.34;;;12.92;60.02
63115;BME280;49208;50.874;6.466;2024-03-02T13:02:40;98913.78;;;12.86;62.77
63115;BME280;49208;50.874;6.466;2024-03-02T13:05:07;98902.69;;;12.80;64.20
63115;BME280;49208;50.874;6.466;2024-03-02T13:07:40;98914.00;;;12.83;63.05
63115;BME280;49208;50.874;6.466;2024-03-02T13:10:06;98906.75;;;12.85;62.46
63115;BME280;49208;50.874;6.466;2024-03-02T13:12:35;98897.88;;;12.85;63.05
63115;BME280;49208;50.874;6.466;2024-03-02T13:15:02;98891.91;;;12.81;64.61
63115;BME280;49208;50.874;6.466;2024-03-02T13:17:29;98895.41;;;12.82;64.39
63115;BME280;49208;50.874;6.466;2024-03-02T13:19:58;98894.34;;;12.84;64.48
63115;BME280;49208;50.874;6.466;2024-03-02T13:22:24;98895.97;;;12.87;65.10
63115;BME280;49208;50.874;6.466;2024-03-02T13:24:51;98890.94;;;12.95;64.04
63115;BME280;49208;50.874;6.466;2024-03-02T13:27:17;98879.50;;;12.93;66.67
63115;BME280;49208;50.874;6.466;2024-03-02T13:29:45;98884.94;;;13.04;65.66
63115;BME280;49208;50.874;6.466;2024-03-02T13:32:12;98895.69;;;13.15;64.68
63115;BME280;49208;50.874;6.466;2024-03-02T13:34:37;98890.16;;;13.19;66.18
63115;BME280;49208;50.874;6.466;2024-03-02T13:37:03;98887.25;;;13.22;65.61
63115;BME280;49208;50.874;6.466;2024-03-02T13:39:30;98885.88;;;13.16;63.51
63115;BME280;49208;50.874;6.466;2024-03-02T13:41:57;98878.06;;;13.13;63.59
63115;BME280;49208;50.874;6.466;2024-03-02T13:44:29;98877.25;;;13.00;62.67
63115;BME280;49208;50.874;6.466;2024-03-02T13:46:54;98862.19;;;12.86;64.80
63115;BME280;49208;50.874;6.466;2024-03-02T13:49:20;98869.25;;;12.74;65.04
63115;BME280;49208;50.874;6.466;2024-03-02T13:51:45;98875.97;;;12.67;64.94
63115;BME280;49208;50.874;6.466;2024-03-02T13:54:11;98869.25;;;12.74;66.40
63115;BME280;49208;50.874;6.466;2024-03-02T13:56:36;98861.03;;;12.90;67.57
63115;BME280;49208;50.874;6.466;2024-03-02T13:59:04;98860.03;;;13.17;67.09
63115;BME280;49208;50.874;6.466;2024-03-02T14:01:30;98862.75;;;13.28;64.92
63115;BME280;49208;50.874;6.466;2024-03-02T14:03:56;98862.34;;;13.34;62.97
63115;BME280;49208;50.874;6.466;2024-03-02T14:06:21;98855.63;;;13.41;64.71
63115;BME280;49208;50.874;6.466;2024-03-02T14:08:47;98838.34;;;13.58;64.19
63115;BME280;49208;50.874;6.466;2024-03-02T14:11:14;98844.72;;;13.68;65.14
63115;BME280;49208;50.874;6.466;2024-03-02T14:13:43;98836.22;;;13.74;62.49
63115;BME280;49208;50.874;6.466;2024-03-02T14:16:12;98851.94;;;13.79;61.52
63115;BME280;49208;50.874;6.466;2024-03-02T14:18:37;98831.34;;;13.92;61.66
63115;BME280;49208;50.874;6.466;2024-03-02T14:21:03;98843.09;;;13.90;62.11
63115;BME280;49208;50.874;6.466;2024-03-02T14:23:29;98842.06;;;13.80;62.42
63115;BME280;49208;50.874;6.466;2024-03-02T14:25:55;98847.84;;;13.62;61.78
63115;BME280;49208;50.874;6.466;2024-03-02T14:28:20;98848.72;;;13.50;64.34
63115;BME280;49208;50.874;6.466;2024-03-02T14:30:46;98840.31;;;13.43;65.26
63115;BME280;49208;50.874;6.466;2024-03-02T14:33:11;98839.47;;;13.43;62.19
63115;BME280;49208;50.874;6.466;2024-03-02T14:35:36;98834.69;;;13.35;63.61
63115;BME280;49208;50.874;6.466;2024-03-02T14:38:02;98827.84;;;13.31;65.16
63115;BME280;49208;50.874;6.466;2024-03-02T14:40:27;98844.19;;;13.26;63.96
63115;BME280;49208;50.874;6.466;2024-03-02T14:42:54;98840.13;;;13.21;65.74
63115;BME280;49208;50.874;6.466;2024-03-02T14:45:19;98836.47;;;13.22;66.08
63115;BME280;49208;50.874;6.466;2024-03-02T14:47:45;98836.19;;;13.13;68.07
63115;BME280;49208;50.874;6.466;2024-03-02T14:50:11;98831.50;;;13.04;70.28
63115;BME280;49208;50.874;6.466;2024-03-02T14:52:36;98830.78;;;12.89;69.03
63115;BME280;49208;50.874;6.466;2024-03-02T14:55:02;98837.84;;;12.78;70.16
63115;BME280;49208;50.874;6.466;2024-03-02T14:57:32;98827.09;;;12.66;71.19
63115;BME280;49208;50.874;6.466;2024-03-02T14:59:57;98828.34;;;12.61;72.29
63115;BME280;49208;50.874;6.466;2024-03-02T15:02:23;98826.44;;;12.50;72.23
63115;BME280;49208;50.874;6.466;2024-03-02T15:04:48;98826.13;;;12.42;72.38
63115;BME280;49208;50.874;6.466;2024-03-02T15:07:14;98826.31;;;12.39;72.62
63115;BME280;49208;50.874;6.466;2024-03-02T15:09:39;98824.72;;;12.36;73.03
63115;BME280;49208;50.874;6.466;2024-03-02T15:12:06;98819.38;;;12.36;73.48
63115;BME280;49208;50.874;6.466;2024-03-02T15:14:34;98828.97;;;12.39;73.74
63115;BME280;49208;50.874;6.466;2024-03-02T15:16:59;98831.97;;;12.34;72.94
63115;BME280;49208;50.874;6.466;2024-03-02T15:19:25;98819.28;;;12.25;73.10
63115;BME280;49208;50.874;6.466;2024-03-02T15:21:51;98816.19;;;12.18;72.44
63115;BME280;49208;50.874;6.466;2024-03-02T15:24:16;98802.94;;;12.17;73.00
63115;BME280;49208;50.874;6.466;2024-03-02T15:26:41;98813.81;;;12.13;72.86
63115;BME280;49208;50.874;6.466;2024-03-02T15:29:07;98802.09;;;12.16;73.08
63115;BME280;49208;50.874;6.466;2024-03-02T15:31:32;98807.88;;;12.23;73.48
63115;BME280;49208;50.874;6.466;2024-03-02T15:33:58;98803.91;;;12.28;74.03
63115;BME280;49208;50.874;6.466;2024-03-02T15:36:24;98801.03;;;12.31;73.22
63115;BME280;49208;50.874;6.466;2024-03-02T15:38:49;98796.97;;;12.39;73.10
63115;BME280;49208;50.874;6.466;2024-03-02T15:41:15;98798.47;;;12.43;73.13
63115;BME280;49208;50.874;6.466;2024-03-02T15:43:40;98800.19;;;12.44;73.36
63115;BME280;49208;50.874;6.466;2024-03-02T15:46:08;98809.88;;;12.45;71.85
63115;BME280;49208;50.874;6.466;2024-03-02T15:48:33;98792.28;;;12.42;74.00
63115;BME280;49208;50.874;6.466;2024-03-02T15:50:58;98794.94;;;12.42;71.63
63115;BME280;49208;50.874;6.466;2024-03-02T15:53:24;98794.09;;;12.42;71.91
63115;BME280;49208;50.874;6.466;2024-03-02T15:55:49;98791.53;;;12.40;70.87
63115;BME280;49208;50.874;6.466;2024-03-02T15:58:15;98796.34;;;12.35;71.74
63115;BME280;49208;50.874;6.466;2024-03-02T16:00:41;98794.94;;;12.29;71.73
63115;BME280;49208;50.874;6.466;2024-03-02T16:03:06;98790.88;;;12.24;72.98
63115;BME280;49208;50.874;6.466;2024-03-02T16:05:31;98794.84;;;12.18;72.92
63115;BME280;49208;50.874;6.466;2024-03-02T16:07:57;98790.69;;;12.14;72.48
63115;BME280;49208;50.874;6.466;2024-03-02T16:10:22;98790.22;;;12.07;74.34
63115;BME280;49208;50.874;6.466;2024-03-02T16:12:49;98793.31;;;12.01;72.70
63115;BME280;49208;50.874;6.466;2024-03-02T16:15:14;98782.97;;;11.97;74.36
63115;BME280;49208;50.874;6.466;2024-03-02T16:17:40;98781.38;;;11.94;73.23
63115;BME280;49208;50.874;6.466;2024-03-02T16:20:06;98794.31;;;11.86;74.37
63115;BME280;49208;50.874;6.466;2024-03-02T16:22:33;98782.16;;;11.82;74.04
63115;BME280;49208;50.874;6.466;2024-03-02T16:24:58;98790.66;;;11.74;74.53
63115;BME280;49208;50.874;6.466;2024-03-02T16:27:23;98792.72;;;11.70;74.70
63115;BME280;49208;50.874;6.466;2024-03-02T16:29:50;98781.56;;;11.64;75.14
63115;BME280;49208;50.874;6.466;2024-03-02T16:32:15;98786.38;;;11.59;75.96
63115;BME280;49208;50.874;6.466;2024-03-02T16:34:40;98784.97;;;11.53;76.97
63115;BME280;49208;50.874;6.466;2024-03-02T16:37:06;98798.09;;;11.56;76.23
63115;BME280;49208;50.874;6.466;2024-03-02T16:39:31;98786.69;;;11.54;76.99
63115;BME280;49208;50.874;6.466;2024-03-02T16:41:56;98792.00;;;11.54;75.97
63115;BME280;49208;50.874;6.466;2024-03-02T16:44:22;98789.97;;;11.58;74.43
63115;BME280;49208;50.874;6.466;2024-03-02T16:46:48;98790.94;;;11.57;76.17
63115;BME280;49208;50.874;6.466;2024-03-02T16:49:14;98785.31;;;11.61;73.83
63115;BME280;49208;50.874;6.466;2024-03-02T16:51:43;98784.38;;;11.62;73.55
63115;BME280;49208;50.874;6.466;2024-03-02T16:54:08;98795.88;;;11.63;74.32
63115;BME280;49208;50.874;6.466;2024-03-02T16:56:40;98791.47;;;11.62;73.69
63115;BME280;49208;50.874;6.466;2024-03-02T16:59:06;98802.56;;;11.56;74.88
63115;BME280;49208;50.874;6.466;2024-03-02T17:01:32;98803.72;;;11.51;74.68
63115;BME280;49208;50.874;6.466;2024-03-02T17:03:57;98805.63;;;11.49;74.61
63115;BME280;49208;50.874;6.466;2024-03-02T17:06:23;98802.31;;;11.46;75.13
63115;BME280;49208;50.874;6.466;2024-03-02T17:08:48;98814.75;;;11.45;74.98
63115;BME280;49208;50.874;6.466;2024-03-02T17:11:14;98815.81;;;11.43;74.54
63115;BME280;49208;50.874;6.466;2024-03-02T17:13:39;98823.38;;;11.36;76.00
63115;BME280;49208;50.874;6.466;2024-03-02T17:16:04;98828.25;;;11.29;77.98
63115;BME280;49208;50.874;6.466;2024-03-02T17:18:30;98825.13;;;11.23;79.48
63115;BME280;49208;50.874;6.466;2024-03-02T17:20:55;98836.25;;;11.15;80.42
63115;BME280;49208;50.874;6.466;2024-03-02T17:23:20;98834.00;;;11.09;80.98
63115;BME280;49208;50.874;6.466;2024-03-02T17:25:46;98836.00;;;11.05;80.87
63115;BME280;49208;50.874;6.466;2024-03-02T17:28:22;98837.88;;;11.03;80.60
63115;BME280;49208;50.874;6.466;2024-03-02T17:30:47;98838.19;;;10.99;80.87
63115;BME280;49208;50.874;6.466;2024-03-02T17:33:13;98841.16;;;10.94;81.30
63115;BME280;49208;50.874;6.466;2024-03-02T17:35:38;98836.75;;;10.93;80.66
63115;BME280;49208;50.874;6.466;2024-03-02T17:38:04;98845.41;;;10.97;80.01
63115;BME280;49208;50.874;6.466;2024-03-02T17:40:29;98842.00;;;10.95;80.21
63115;BME280;49208;50.874;6.466;2024-03-02T17:42:54;98854.56;;;10.92;80.10
63115;BME280;49208;50.874;6.466;2024-03-02T17:45:20;98844.94;;;10.90;80.11
63115;BME280;49208;50.874;6.466;2024-03-02T17:47:45;98850.38;;;10.88;80.65
63115;BME280;49208;50.874;6.466;2024-03-02T17:50:10;98847.03;;;10.85;80.62
63115;BME280;49208;50.874;6.466;2024-03-02T17:52:36;98846.41;;;10.81;81.50
63115;BME280;49208;50.874;6.466;2024-03-02T17:55:01;98842.84;;;10.81;81.18
63115;BME280;49208;50.874;6.466;2024-03-02T17:57:26;98852.66;;;10.80;81.17
63115;BME280;49208;50.874;6.466;2024-03-02T17:59:53;98846.41;;;10.81;81.57
63115;BME280;49208;50.874;6.466;2024-03-02T18:02:18;98861.59;;;10.79;81.75
63115;BME280;49208;50.874;6.466;2024-03-02T18:04:44;98859.13;;;10.76;81.55
63115;BME280;49208;50.874;6.466;2024-03-02T18:07:09;98861.78;;;10.76;81.41
63115;BME280;49208;50.874;6.466;2024-03-02T18:09:34;98870.72;;;10.75;81.30
63115;BME280;49208;50.874;6.466;2024-03-02T18:12:01;98875.00;;;10.78;81.52
63115;BME280;49208;50.874;6.466;2024-03-02T18:14:26;98872.34;;;10.78;81.88
63115;BME280;49208;50.874;6.466;2024-03-02T18:16:51;98877.81;;;10.75;82.91
63115;BME280;49208;50.874;6.466;2024-03-02T18:19:17;98862.81;;;10.74;83.80
63115;BME280;49208;50.874;6.466;2024-03-02T18:21:42;98861.31;;;10.69;84.37
63115;BME280;49208;50.874;6.466;2024-03-02T18:24:08;98873.00;;;10.67;82.86
63115;BME280;49208;50.874;6.466;2024-03-02T18:26:33;98873.00;;;10.67;82.73
63115;BME280;49208;50.874;6.466;2024-03-02T18:29:00;98865.78;;;10.69;81.56
63115;BME280;49208;50.874;6.466;2024-03-02T18:31:25;98865.78;;;10.69;81.78
63115;BME280;49208;50.874;6.466;2024-03-02T18:33:51;98857.13;;;10.65;81.17
63115;BME280;49208;50.874;6.466;2024-03-02T18:36:16;98852.72;;;10.64;81.33
63115;BME280;49208;50.874;6.466;2024-03-02T18:38:42;98851.13;;;10.62;82.06
63115;BME280;49208;50.874;6.466;2024-03-02T18:41:07;98851.69;;;10.52;82.84
63115;BME280;49208;50.874;6.466;2024-03-02T18:43:32;98844.19;;;10.45;83.13
63115;BME280;49208;50.874;6.466;2024-03-02T18:45:58;98844.75;;;10.36;83.84
63115;BME280;49208;50.874;6.466;2024-03-02T18:48:24;98842.47;;;10.29;84.28
63115;BME280;49208;50.874;6.466;2024-03-02T18:50:50;98838.31;;;10.24;84.68
63115;BME280;49208;50.874;6.466;2024-03-02T18:53:15;98840.38;;;10.19;85.54
63115;BME280;49208;50.874;6.466;2024-03-02T18:55:40;98838.09;;;10.12;86.09
63115;BME280;49208;50.874;6.466;2024-03-02T18:58:06;98839.91;;;10.12;85.87
63115;BME280;49208;50.874;6.466;2024-03-02T19:00:31;98828.88;;;10.04;87.19
63115;BME280;49208;50.874;6.466;2024-03-02T19:02:56;98828.22;;;10.00;86.65
63115;BME280;49208;50.874;6.466;2024-03-02T19:05:22;98833.69;;;9.97;86.41
63115;BME280;49208;50.874;6.466;2024-03-02T19:07:47;98822.50;;;9.92;86.66
63115;BME280;49208;50.874;6.466;2024-03-02T19:10:13;98827.28;;;9.85;87.46
63115;BME280;49208;50.874;6.466;2024-03-02T19:12:38;98824.56;;;9.87;87.25
63115;BME280;49208;50.874;6.466;2024-03-02T19:15:04;98824.56;;;9.87;87.60
63115;BME280;49208;50.874;6.466;2024-03-02T19:17:29;98826.09;;;9.91;87.21
63115;BME280;49208;50.874;6.466;2024-03-02T19:19:55;98821.44;;;9.95;86.65
63115;BME280;49208;50.874;6.466;2024-03-02T19:22:20;98810.75;;;9.96;86.60
63115;BME280;49208;50.874;6.466;2024-03-02T19:24:48;98818.50;;;9.99;86.25
63115;BME280;49208;50.874;6.466;2024-03-02T19:27:13;98814.16;;;9.98;85.91
63115;BME280;49208;50.874;6.466;2024-03-02T19:29:39;98825.63;;;9.99;86.03
63115;BME280;49208;50.874;6.466;2024-03-02T19:32:05;98812.16;;;10.02;85.46
63115;BME280;49208;50.874;6.466;2024-03-02T19:34:30;98822.63;;;10.05;84.72
63115;BME280;49208;50.874;6.466;2024-03-02T19:36:55;98822.63;;;10.05;85.05
63115;BME280;49208;50.874;6.466;2024-03-02T19:39:22;98817.31;;;10.05;84.30
63115;BME280;49208;50.874;6.466;2024-03-02T19:41:54;98819.97;;;10.05;84.58
63115;BME280;49208;50.874;6.466;2024-03-02T19:44:19;98818.16;;;10.05;84.10
63115;BME280;49208;50.874;6.466;2024-03-02T19:46:45;98824.44;;;10.04;84.05
63115;BME280;49208;50.874;6.466;2024-03-02T19:49:10;98817.66;;;9.99;84.61
63115;BME280;49208;50.874;6.466;2024-03-02T19:51:36;98820.41;;;9.97;85.05
63115;BME280;49208;50.874;6.466;2024-03-02T19:54:01;98817.81;;;9.96;84.64
63115;BME280;49208;50.874;6.466;2024-03-02T19:56:29;98816.91;;;9.97;84.72
63115;BME280;49208;50.874;6.466;2024-03-02T19:58:54;98811.66;;;9.95;84.53
63115;BME280;49208;50.874;6.466;2024-03-02T20:01:19;98810.97;;;9.91;84.56
63115;BME280;49208;50.874;6.466;2024-03-02T20:03:45;98806.03;;;9.85;85.17
63115;BME280;49208;50.874;6.466;2024-03-02T20:06:10;98809.16;;;9.78;85.18